Time,TemperatureF,DewpointF,PressureIn,WindDirection,WindDirectionDegrees,WindSpeedMPH,WindSpeedGustMPH,Humidity,HourlyPrecipIn,Conditions,Clouds,dailyrainin,SoftwareType,DateUTC
2013-07-22 00:11:00,71.8,49.0,29.56,SE,135,0.0,-999.0,45,-99.99,,,0.00,weatherlink.com 1.10,2013-07-22 06:11:00,
2013-07-22 00:26:00,71.1,49.0,29.56,SE,135,0.0,-999.0,46,-99.99,,,0.00,weatherlink.com 1.10,2013-07-22 06:26:00,
2013-07-22 00:41:00,69.8,50.0,29.56,ESE,113,3.0,-999.0,49,-99.99,,,0.00,weatherlink.com 1.10,2013-07-22 06:41:00,
2013-07-22 00:56:00,66.8,50.0,29.57,North,6,3.0,-999.0,55,-99.99,,,0.00,weatherlink.com 1.10,2013-07-22 06:56:00,
2013-07-22 01:11:00,67.4,48.0,29.58,North,6,3.0,-999.0,51,-99.99,,,0.00,weatherlink.com 1.10,2013-07-22 07:11:00,
2013-07-22 01:26:00,66.6,49.0,29.57,North,357,6.0,-999.0,53,-99.99,,,0.00,weatherlink.com 1.10,2013-07-22 07:26:00,
2013-07-22 01:41:00,65.8,49.0,29.56,North,357,0.0,-999.0,55,-99.99,,,0.00,weatherlink.com 1.10,2013-07-22 07:41:00,
2013-07-22 01:56:00,65.2,49.0,29.57,North,357,2.0,-999.0,57,-99.99,,,0.00,weatherlink.com 1.10,2013-07-22 07:56:00,
2013-07-22 02:11:00,64.2,49.0,29.58,North,356,0.0,-999.0,58,-99.99,,,0.00,weatherlink.com 1.10,2013-07-22 08:11:00,
2013-07-22 02:26:00,63.9,49.0,29.58,North,357,0.0,-999.0,59,-99.99,,,0.00,weatherlink.com 1.10,2013-07-22 08:26:00,
2013-07-22 02:41:00,63.2,49.0,29.57,North,359,0.0,-999.0,60,-99.99,,,0.00,weatherlink.com 1.10,2013-07-22 08:41:00,
2013-07-22 02:56:00,63.4,49.0,29.58,North,359,0.0,-999.0,60,-99.99,,,0.00,weatherlink.com 1.10,2013-07-22 08:56:00,
2013-07-22 03:11:00,63.1,49.0,29.57,North,359,0.0,-999.0,61,-99.99,,,0.00,weatherlink.com 1.10,2013-07-22 09:11:00,
2013-07-22 03:26:00,62.7,49.0,29.57,North,359,1.0,-999.0,62,-99.99,,,0.00,weatherlink.com 1.10,2013-07-22 09:26:00,
2013-07-22 03:41:00,62.9,49.0,29.61,NNE,12,0.0,-999.0,60,-99.99,,,0.00,weatherlink.com 1.10,2013-07-22 09:41:00,
2013-07-22 03:56:00,63.4,49.0,29.60,NE,42,0.0,-999.0,59,-99.99,,,0.00,weatherlink.com 1.10,2013-07-22 09:56:00,
2013-07-22 04:11:00,63.1,48.0,29.60,NE,43,0.0,-999.0,58,-99.99,,,0.00,weatherlink.com 1.10,2013-07-22 10:11:00,
2013-07-22 04:26:00,62.6,48.0,29.60,NNE,25,0.0,-999.0,59,-99.99,,,0.00,weatherlink.com 1.10,2013-07-22 10:26:00,
2013-07-22 04:41:00,62.0,47.0,29.60,NE,34,2.0,-999.0,59,-99.99,,,0.00,weatherlink.com 1.10,2013-07-22 10:41:00,
2013-07-22 04:56:00,62.0,47.0,29.61,NE,53,1.0,-999.0,59,-99.99,,,0.00,weatherlink.com 1.10,2013-07-22 10:56:00,
2013-07-22 05:12:00,61.5,47.0,29.60,NE,35,0.0,-999.0,59,-99.99,,,0.00,weatherlink.com 1.10,2013-07-22 11:12:00,
2013-07-22 05:27:00,61.3,47.0,29.61,NE,41,0.0,-999.0,59,-99.99,,,0.00,weatherlink.com 1.10,2013-07-22 11:27:00,
2013-07-22 05:43:00,61.3,47.0,29.62,NE,46,2.0,-999.0,60,-99.99,,,0.00,weatherlink.com 1.10,2013-07-22 11:43:00,
2013-07-22 05:57:00,61.2,47.0,29.62,NE,46,0.0,-999.0,59,-99.99,,,0.00,weatherlink.com 1.10,2013-07-22 11:57:00,
2013-07-22 06:13:00,60.2,46.0,29.62,NNE,16,0.0,-999.0,60,-99.99,,,0.00,weatherlink.com 1.10,2013-07-22 12:13:00,
2013-07-22 06:28:00,59.3,47.0,29.63,NNE,16,0.0,-999.0,63,-99.99,,,0.00,weatherlink.com 1.10,2013-07-22 12:28:00,
2013-07-22 06:43:00,59.5,47.0,29.66,NNE,15,0.0,-999.0,63,-99.99,,,0.00,weatherlink.com 1.10,2013-07-22 12:43:00,
2013-07-22 06:58:00,60.9,47.0,29.67,NNE,15,0.0,-999.0,60,-99.99,,,0.00,weatherlink.com 1.10,2013-07-22 12:58:00,
2013-07-22 07:13:00,63.4,47.0,29.66,NNE,15,0.0,-999.0,55,-99.99,,,0.00,weatherlink.com 1.10,2013-07-22 13:13:00,
2013-07-22 07:29:00,65.8,47.0,29.65,NNE,16,3.0,-999.0,51,-99.99,,,0.00,weatherlink.com 1.10,2013-07-22 13:29:00,
2013-07-22 07:43:00,67.1,48.0,29.66,NNE,32,0.0,-999.0,50,-99.99,,,0.00,weatherlink.com 1.10,2013-07-22 13:43:00,
2013-07-22 07:59:00,69.1,48.0,29.65,NNE,32,4.0,-999.0,47,-99.99,,,0.00,weatherlink.com 1.10,2013-07-22 13:59:00,
2013-07-22 08:13:00,70.9,48.0,29.64,NNE,30,0.0,-999.0,44,-99.99,,,0.00,weatherlink.com 1.10,2013-07-22 14:13:00,
2013-07-22 08:28:00,73.2,48.0,29.63,NNE,18,0.0,-999.0,41,-99.99,,,0.00,weatherlink.com 1.10,2013-07-22 14:28:00,
2013-07-22 08:43:00,75.1,49.0,29.63,NNE,13,0.0,-999.0,40,-99.99,,,0.00,weatherlink.com 1.10,2013-07-22 14:43:00,
2013-07-22 08:59:00,78.1,48.0,29.61,NNE,13,0.0,-999.0,35,-99.99,,,0.00,weatherlink.com 1.10,2013-07-22 14:59:00,
2013-07-22 09:15:00,78.8,47.0,29.61,NNE,17,1.0,-999.0,32,-99.99,,,0.00,weatherlink.com 1.10,2013-07-22 15:15:00,
2013-07-22 09:28:00,79.9,47.0,29.61,SSE,162,1.0,-999.0,32,-99.99,,,0.00,weatherlink.com 1.10,2013-07-22 15:28:00,
2013-07-22 09:44:00,80.3,47.0,29.60,SSE,167,1.0,-999.0,31,-99.99,,,0.00,weatherlink.com 1.10,2013-07-22 15:44:00,
2013-07-22 10:00:00,80.5,47.0,29.61,SSE,166,1.0,-999.0,31,-99.99,,,0.00,weatherlink.com 1.10,2013-07-22 16:00:00,
2013-07-22 10:15:00,81.2,48.0,29.59,South,169,0.0,-999.0,31,-99.99,,,0.00,weatherlink.com 1.10,2013-07-22 16:15:00,
2013-07-22 10:29:00,81.8,47.0,29.59,SW,231,6.0,-999.0,30,-99.99,,,0.00,weatherlink.com 1.10,2013-07-22 16:29:00,
2013-07-22 10:44:00,82.2,48.0,29.58,SW,231,5.0,-999.0,30,-99.99,,,0.00,weatherlink.com 1.10,2013-07-22 16:44:00,
2013-07-22 11:00:00,83.0,47.0,29.58,West,274,6.0,-999.0,28,-99.99,,,0.00,weatherlink.com 1.10,2013-07-22 17:00:00,
2013-07-22 11:15:00,83.4,47.0,29.58,West,264,10.0,-999.0,28,-99.99,,,0.00,weatherlink.com 1.10,2013-07-22 17:15:00,
2013-07-22 11:30:00,84.3,47.0,29.58,WSW,250,11.0,-999.0,27,-99.99,,,0.00,weatherlink.com 1.10,2013-07-22 17:30:00,
2013-07-22 11:45:00,85.3,48.0,29.56,WSW,257,6.0,-999.0,27,-99.99,,,0.00,weatherlink.com 1.10,2013-07-22 17:45:00,
2013-07-22 12:01:00,85.7,47.0,29.56,WNW,285,10.0,-999.0,26,-99.99,,,0.00,weatherlink.com 1.10,2013-07-22 18:01:00,
2013-07-22 12:30:00,87.2,46.0,29.55,WSW,244,5.0,-999.0,24,-99.99,,,0.00,weatherlink.com 1.10,2013-07-22 18:30:00,
2013-07-22 13:01:00,89.0,47.0,29.56,West,259,3.0,-999.0,23,-99.99,,,0.00,weatherlink.com 1.10,2013-07-22 19:01:00,
2013-07-22 13:17:00,89.5,47.0,29.54,WSW,250,4.0,-999.0,23,-99.99,,,0.00,weatherlink.com 1.10,2013-07-22 19:17:00,
2013-07-22 13:31:00,90.3,47.0,29.54,SW,218,5.0,-999.0,22,-99.99,,,0.00,weatherlink.com 1.10,2013-07-22 19:31:00,
2013-07-22 13:47:00,91.2,46.0,29.54,WSW,253,12.0,-999.0,21,-99.99,,,0.00,weatherlink.com 1.10,2013-07-22 19:47:00,
2013-07-22 14:01:00,91.2,46.0,29.53,West,261,4.0,-999.0,21,-99.99,,,0.00,weatherlink.com 1.10,2013-07-22 20:01:00,
2013-07-22 14:17:00,91.0,46.0,29.52,SSW,208,12.0,-999.0,21,-99.99,,,0.00,weatherlink.com 1.10,2013-07-22 20:17:00,
2013-07-22 14:32:00,92.9,46.0,29.50,SW,230,5.0,-999.0,20,-99.99,,,0.00,weatherlink.com 1.10,2013-07-22 20:32:00,
2013-07-22 14:47:00,92.5,46.0,29.51,WSW,251,13.0,-999.0,20,-99.99,,,0.00,weatherlink.com 1.10,2013-07-22 20:47:00,
2013-07-22 15:01:00,93.6,46.0,29.51,West,274,11.0,-999.0,19,-99.99,,,0.00,weatherlink.com 1.10,2013-07-22 21:01:00,
2013-07-22 15:17:00,93.4,45.0,29.49,West,269,7.0,-999.0,19,-99.99,,,0.00,weatherlink.com 1.10,2013-07-22 21:17:00,
2013-07-22 15:32:00,94.0,44.0,29.49,SW,216,5.0,-999.0,18,-99.99,,,0.00,weatherlink.com 1.10,2013-07-22 21:32:00,
2013-07-22 15:47:00,91.8,40.0,29.50,North,4,13.0,-999.0,16,-99.99,,,0.00,weatherlink.com 1.10,2013-07-22 21:47:00,
2013-07-22 16:03:00,87.4,45.0,29.53,NNW,345,18.0,-999.0,23,-99.99,,,0.00,weatherlink.com 1.10,2013-07-22 22:03:00,
2013-07-22 16:17:00,84.9,45.0,29.53,NNE,30,5.0,-999.0,25,-99.99,,,0.00,weatherlink.com 1.10,2013-07-22 22:17:00,
2013-07-22 16:32:00,84.0,45.0,29.55,NNE,16,12.0,-999.0,25,-99.99,,,0.00,weatherlink.com 1.10,2013-07-22 22:32:00,
2013-07-22 16:47:00,83.6,45.0,29.56,NE,36,3.0,-999.0,26,-99.99,,,0.00,weatherlink.com 1.10,2013-07-22 22:47:00,
2013-07-22 17:03:00,84.5,42.0,29.57,NNW,342,14.0,-999.0,22,-99.99,,,0.00,weatherlink.com 1.10,2013-07-22 23:03:00,
2013-07-22 17:18:00,82.2,42.0,29.57,North,352,9.0,-999.0,24,-99.99,,,0.00,weatherlink.com 1.10,2013-07-22 23:18:00,
2013-07-22 17:33:00,81.8,42.0,29.59,NW,306,24.0,-999.0,24,-99.99,,,0.00,weatherlink.com 1.10,2013-07-22 23:33:00,
2013-07-22 17:47:00,84.1,41.0,29.57,NNW,328,28.0,-999.0,22,-99.99,,,0.00,weatherlink.com 1.10,2013-07-22 23:47:00,
2013-07-22 18:03:00,83.8,43.0,29.55,NNW,334,17.0,-999.0,24,-99.99,,,0.00,weatherlink.com 1.10,2013-07-23 00:03:00,
2013-07-22 18:18:00,81.6,40.0,29.60,WNW,282,15.0,-999.0,23,-99.99,,,0.00,weatherlink.com 1.10,2013-07-23 00:18:00,
2013-07-22 18:32:00,85.3,37.0,29.54,ESE,106,3.0,-999.0,18,-99.99,,,0.00,weatherlink.com 1.10,2013-07-23 00:32:00,
2013-07-22 18:48:00,86.5,37.0,29.52,NE,53,0.0,-999.0,17,-99.99,,,0.00,weatherlink.com 1.10,2013-07-23 00:48:00,
2013-07-22 19:03:00,85.3,39.0,29.52,NNE,28,3.0,-999.0,19,-99.99,,,0.00,weatherlink.com 1.10,2013-07-23 01:03:00,
2013-07-22 19:19:00,84.0,40.0,29.53,NE,50,3.0,-999.0,21,-99.99,,,0.00,weatherlink.com 1.10,2013-07-23 01:19:00,
2013-07-22 19:33:00,83.6,43.0,29.49,ESE,110,9.0,-999.0,24,-99.99,,,0.00,weatherlink.com 1.10,2013-07-23 01:33:00,
2013-07-22 19:48:00,83.4,44.0,29.50,ESE,112,5.0,-999.0,25,-99.99,,,0.00,weatherlink.com 1.10,2013-07-23 01:48:00,
2013-07-22 20:03:00,83.0,44.0,29.50,SE,136,2.0,-999.0,25,-99.99,,,0.00,weatherlink.com 1.10,2013-07-23 02:03:00,
2013-07-22 20:18:00,82.2,44.0,29.51,SE,141,0.0,-999.0,26,-99.99,,,0.00,weatherlink.com 1.10,2013-07-23 02:18:00,
2013-07-22 20:33:00,81.8,44.0,29.47,SE,141,0.0,-999.0,26,-99.99,,,0.00,weatherlink.com 1.10,2013-07-23 02:33:00,
2013-07-22 20:48:00,80.5,44.0,29.48,SE,141,0.0,-999.0,28,-99.99,,,0.00,weatherlink.com 1.10,2013-07-23 02:48:00,
2013-07-22 21:03:00,77.9,47.0,29.50,SE,141,2.0,-999.0,34,-99.99,,,0.00,weatherlink.com 1.10,2013-07-23 03:03:00,
2013-07-22 21:18:00,75.8,49.0,29.52,SE,141,2.0,-999.0,39,-99.99,,,0.00,weatherlink.com 1.10,2013-07-23 03:18:00,
2013-07-22 21:33:00,75.8,50.0,29.51,SE,141,1.0,-999.0,40,-99.99,,,0.00,weatherlink.com 1.10,2013-07-23 03:33:00,
2013-07-22 21:48:00,74.7,49.0,29.52,SE,141,0.0,-999.0,40,-99.99,,,0.00,weatherlink.com 1.10,2013-07-23 03:48:00,
2013-07-22 22:03:00,74.7,48.0,29.52,SE,141,1.0,-999.0,39,-99.99,,,0.00,weatherlink.com 1.10,2013-07-23 04:03:00,
2013-07-22 22:18:00,76.0,47.0,29.52,East,82,1.0,-999.0,36,-99.99,,,0.00,weatherlink.com 1.10,2013-07-23 04:18:00,
2013-07-22 22:33:00,74.9,49.0,29.51,East,82,0.0,-999.0,40,-99.99,,,0.00,weatherlink.com 1.10,2013-07-23 04:33:00,
2013-07-22 22:48:00,74.2,47.0,29.55,SSE,158,0.0,-999.0,38,-99.99,,,0.00,weatherlink.com 1.10,2013-07-23 04:48:00,
2013-07-22 23:03:00,75.8,46.0,29.54,SSE,158,0.0,-999.0,35,-99.99,,,0.00,weatherlink.com 1.10,2013-07-23 05:03:00,
2013-07-22 23:18:00,76.1,46.0,29.54,SSE,158,0.0,-999.0,35,-99.99,,,0.00,weatherlink.com 1.10,2013-07-23 05:18:00,
2013-07-22 23:33:00,76.1,47.0,29.51,SSE,158,0.0,-999.0,36,-99.99,,,0.00,weatherlink.com 1.10,2013-07-23 05:33:00,
2013-07-22 23:48:00,74.2,48.0,29.52,SSE,158,0.0,-999.0,39,-99.99,,,0.00,weatherlink.com 1.10,2013-07-23 05:48:00,